No particular awareness of the weather is required.    There are no Weather-warnings


Meteo18 Weather Cam more information Meteo18 Weather Cam


Thunder radar more information blitzortung!


Rain radar more information rain snow radar


Visit our other weather sites:

Template documentation
and downloads

And another site



Weather Underground History page Text

Daily Summary for March 24, 2017 Units:  English    Metric   Both
« Previous Day
Next Day »
Daily Weekly Monthly Yearly Custom
  High: Low: Average:
Temperature: TemperatureC °F 3.6 °F 7.9 °F
Dew Point: DewpointC °F 2.9 °F 6.4 °F
Humidity: Humidity % 78 % 90 %
Wind Speed: WindSpeedKMH mph 0.0 mph 7.3 mph
Wind Gust: WindSpeedGustKMH mph - -
Wind:- - ENE
Pressure: PressurehPa in 1017.5 in -
Precipitation: 1.5 in    
Historical Graphs
 
 
Tabular Data for March 24, 2017
Time Temperature Dew Point Pressure Wind Wind Speed Wind Gust Humidity Rainfall Rate (Hourly)
TemperatureC °F DewpointC °F PressurehPa in Calm     Humidity % HourlyPrecipMM in
00:02 5.1 °F 4.2 °F 1017.5 in Calm   3.2 mph 94 % 0.0 in
00:07 5.2 °F 4.3 °F 1017.5 in NE 1.6 mph 1.6 mph 94 % 0.0 in
00:12 5.2 °F 4.3 °F 1017.8 in ENE 1.6 mph 1.6 mph 94 % 0.0 in
00:17 5.2 °F 4.3 °F 1017.8 in ENE 1.6 mph 3.2 mph 94 % 0.0 in
00:22 5.1 °F 4.1 °F 1018.2 in Calm   3.2 mph 93 % 0.0 in
00:32 4.7 °F 3.8 °F 1018.2 in Calm   3.2 mph 94 % 0.0 in
00:37 4.5 °F 3.5 °F 1018.5 in Calm   3.2 mph 93 % 0.0 in
00:42 4.3 °F 3.4 °F 1018.5 in Calm   1.6 mph 94 % 0.0 in
00:52 4.4 °F 3.7 °F 1018.5 in ENE 1.6 mph 1.6 mph 95 % 0.0 in
00:57 4.5 °F 3.8 °F 1018.5 in Calm   1.6 mph 95 % 0.0 in
01:02 4.4 °F 3.7 °F 1018.8 in Calm   1.6 mph 95 % 0.0 in
01:12 4.3 °F 3.6 °F 1018.8 in Calm   1.6 mph 95 % 0.0 in
01:17 4.1 °F 3.4 °F 1018.8 in Calm   1.6 mph 95 % 0.0 in
01:22 4.1 °F 3.4 °F 1018.8 in North 1.6 mph 1.6 mph 95 % 0.0 in
01:27 4.1 °F 3.4 °F 1018.8 in North 1.6 mph 1.6 mph 95 % 0.0 in
01:32 3.8 °F 3.1 °F 1018.8 in North 1.6 mph 1.6 mph 95 % 0.0 in
01:42 3.6 °F 2.9 °F 1018.8 in NNW 1.6 mph 3.2 mph 95 % 0.0 in
01:47 3.6 °F 2.9 °F 1018.8 in Calm   3.2 mph 95 % 0.0 in
01:52 3.6 °F 3.0 °F 1019.2 in North 1.6 mph 3.2 mph 96 % 0.0 in
01:57 3.6 °F 3.0 °F 1019.2 in Calm   3.2 mph 96 % 0.0 in
02:02 3.7 °F 3.1 °F 1018.8 in NNE 3.2 mph 3.2 mph 96 % 0.0 in
02:12 3.9 °F 3.3 °F 1018.8 in Calm   4.8 mph 96 % 0.0 in
02:17 3.9 °F 3.3 °F 1018.8 in Calm   4.8 mph 96 % 0.0 in
02:22 3.7 °F 3.1 °F 1018.8 in Calm   4.8 mph 96 % 0.0 in
02:27 3.8 °F 3.2 °F 1018.8 in Calm     96 % 0.0 in
02:32 4.0 °F 3.4 °F 1018.8 in Calm     96 % 0.0 in
02:42 3.8 °F 3.2 °F 1018.8 in Calm     96 % 0.0 in
02:47 3.8 °F 3.2 °F 1018.8 in Calm   1.6 mph 96 % 0.0 in
02:52 3.7 °F 3.1 °F 1018.8 in Calm   1.6 mph 96 % 0.0 in
02:57 3.9 °F 3.3 °F 1018.8 in NNE 3.2 mph 3.2 mph 96 % 0.0 in
03:02 3.8 °F 3.2 °F 1018.8 in North 1.6 mph 3.2 mph 96 % 0.0 in
03:12 3.8 °F 3.2 °F 1018.8 in Calm   6.4 mph 96 % 0.0 in
03:17 3.8 °F 3.2 °F 1018.8 in Calm   3.2 mph 96 % 0.0 in
03:22 3.9 °F 3.5 °F 1018.8 in Calm   3.2 mph 97 % 0.0 in
03:32 3.9 °F 3.5 °F 1018.8 in Calm     97 % 0.0 in
03:42 3.8 °F 3.4 °F 1018.8 in Calm     97 % 0.0 in
03:47 3.7 °F 3.1 °F 1018.8 in Calm     96 % 0.0 in
03:52 3.7 °F 3.1 °F 1019.2 in Calm     96 % 0.0 in
04:02 3.7 °F 3.3 °F 1018.8 in North 1.6 mph   97 % 0.0 in
04:07 3.8 °F 3.4 °F 1018.8 in North 1.6 mph 3.2 mph 97 % 0.0 in
04:12 3.8 °F 3.4 °F 1018.8 in Calm   3.2 mph 97 % 0.0 in
04:17 3.8 °F 3.4 °F 1019.2 in Calm   3.2 mph 97 % 0.0 in
04:22 3.9 °F 3.5 °F 1019.2 in Calm   3.2 mph 97 % 0.0 in
04:27 4.0 °F 3.6 °F 1019.2 in NNW 3.2 mph 3.2 mph 97 % 0.0 in
04:32 4.1 °F 3.7 °F 1018.8 in NNW 1.6 mph 1.6 mph 97 % 0.0 in
04:37 4.1 °F 3.7 °F 1018.8 in NNW 1.6 mph 8.0 mph 97 % 0.0 in
04:42 4.1 °F 3.7 °F 1018.8 in NW 1.6 mph 8.0 mph 97 % 0.0 in
04:47 4.2 °F 3.8 °F 1019.2 in NNW 3.2 mph 8.0 mph 97 % 0.0 in
04:52 4.2 °F 3.8 °F 1019.2 in Calm   8.0 mph 97 % 0.0 in
04:57 4.3 °F 3.9 °F 1019.2 in NNE 3.2 mph 4.8 mph 97 % 0.0 in
05:02 4.3 °F 3.9 °F 1018.8 in North 1.6 mph 4.8 mph 97 % 0.0 in
05:12 4.4 °F 3.8 °F 1019.5 in Calm   4.8 mph 96 % 0.0 in
05:17 4.4 °F 3.8 °F 1019.5 in Calm   3.2 mph 96 % 0.0 in
05:22 4.4 °F 3.8 °F 1019.5 in Calm   3.2 mph 96 % 0.0 in
05:32 4.3 °F 3.7 °F 1019.5 in Calm   1.6 mph 96 % 0.0 in
05:37 4.3 °F 3.7 °F 1019.5 in NW 1.6 mph 1.6 mph 96 % 0.0 in
05:42 4.4 °F 4.0 °F 1019.9 in WNW 1.6 mph 1.6 mph 97 % 0.0 in
05:47 4.4 °F 4.0 °F 1019.9 in Calm   3.2 mph 97 % 0.0 in
05:52 4.4 °F 3.8 °F 1019.9 in Calm   3.2 mph 96 % 0.0 in
05:57 4.4 °F 3.8 °F 1019.9 in Calm   3.2 mph 96 % 0.0 in
06:02 4.4 °F 3.8 °F 1019.9 in Calm   3.2 mph 96 % 0.0 in
06:12 4.6 °F 4.2 °F 1019.5 in NNW 1.6 mph 1.6 mph 97 % 0.0 in
06:17 4.6 °F 4.0 °F 1019.5 in Calm   3.2 mph 96 % 0.3 in
06:22 4.6 °F 4.0 °F 1019.5 in NNW 3.2 mph 3.2 mph 96 % 0.3 in
06:27 4.6 °F 4.0 °F 1019.9 in Calm   4.8 mph 96 % 0.3 in
06:32 4.7 °F 4.1 °F 1019.9 in Calm   4.8 mph 96 % 0.3 in
06:37 4.7 °F 4.1 °F 1020.2 in North 1.6 mph 3.2 mph 96 % 0.3 in
06:42 4.8 °F 4.2 °F 1020.2 in NNE 1.6 mph 3.2 mph 96 % 0.3 in
06:52 4.9 °F 4.3 °F 1020.5 in Calm   4.8 mph 96 % 0.3 in
06:57 4.8 °F 4.2 °F 1020.5 in Calm   4.8 mph 96 % 0.3 in
07:02 4.8 °F 4.2 °F 1020.2 in Calm   1.6 mph 96 % 0.5 in
07:12 4.8 °F 4.2 °F 1020.2 in Calm   1.6 mph 96 % 0.5 in
07:17 4.9 °F 4.3 °F 1020.2 in Calm   1.6 mph 96 % 0.5 in
07:22 4.9 °F 4.3 °F 1020.5 in Calm   1.6 mph 96 % 0.5 in
07:32 5.1 °F 4.5 °F 1020.5 in Calm     96 % 0.5 in
07:37 5.1 °F 4.5 °F 1020.9 in Calm     96 % 0.5 in
07:42 5.2 °F 4.6 °F 1020.9 in Calm     96 % 0.5 in
07:52 5.2 °F 4.6 °F 1020.9 in Calm     96 % 0.5 in
08:02 5.3 °F 4.7 °F 1020.9 in Calm   1.6 mph 96 % 0.5 in
08:07 5.4 °F 4.8 °F 1020.9 in NE 1.6 mph 6.4 mph 96 % 0.3 in
08:17 5.6 °F 5.0 °F 1020.9 in NE 4.8 mph 9.7 mph 96 % 0.3 in
08:22 5.6 °F 5.0 °F 1020.9 in NNE 8.0 mph 9.7 mph 96 % 0.3 in
08:27 5.7 °F 5.1 °F 1021.2 in NNE 6.4 mph 9.7 mph 96 % 0.3 in
08:32 5.8 °F 5.2 °F 1021.2 in NNE 3.2 mph 9.7 mph 96 % 0.3 in
08:42 5.9 °F 5.3 °F 1020.9 in NNE 8.0 mph 9.7 mph 96 % 0.3 in
08:47 6.1 °F 5.5 °F 1020.9 in NNE 4.8 mph 12.9 mph 96 % 0.0 in
08:52 6.1 °F 5.5 °F 1021.2 in North 3.2 mph 12.9 mph 96 % 0.0 in
09:02 6.2 °F 5.5 °F 1021.2 in NE 4.8 mph 12.9 mph 95 % 0.0 in
09:07 6.3 °F 5.6 °F 1021.2 in ESE 3.2 mph 14.5 mph 95 % 0.0 in
09:12 6.3 °F 5.6 °F 1021.6 in NNE 9.7 mph 14.5 mph 95 % 0.0 in
09:17 6.3 °F 5.6 °F 1021.2 in NE 9.7 mph 14.5 mph 95 % 0.0 in
09:22 6.3 °F 5.6 °F 1021.6 in NE 6.4 mph 14.5 mph 95 % 0.0 in
09:32 6.4 °F 5.7 °F 1021.6 in NNE 4.8 mph 14.5 mph 95 % 0.0 in
09:42 6.4 °F 5.7 °F 1021.6 in Calm   14.5 mph 95 % 0.0 in
09:47 6.5 °F 5.8 °F 1021.6 in NE 8.0 mph 14.5 mph 95 % 0.0 in
09:52 6.6 °F 5.9 °F 1021.6 in North 6.4 mph 14.5 mph 95 % 0.0 in
10:02 6.6 °F 5.9 °F 1021.9 in ENE 1.6 mph 9.7 mph 95 % 0.0 in
10:12 6.7 °F 6.0 °F 1022.2 in NNE 4.8 mph 11.3 mph 95 % 0.0 in
10:22 6.8 °F 6.1 °F 1022.2 in NNE 4.8 mph 9.7 mph 95 % 0.0 in
10:32 6.9 °F 6.3 °F 1022.2 in NNE 3.2 mph 11.3 mph 96 % 0.5 in
10:37 6.9 °F 6.3 °F 1022.2 in NNE 9.7 mph 16.1 mph 96 % 0.5 in
10:42 6.9 °F 6.3 °F 1022.2 in NNE 4.8 mph 16.1 mph 96 % 0.5 in
10:47 7.1 °F 6.5 °F 1022.6 in NNE 8.0 mph 16.1 mph 96 % 0.5 in
10:52 7.1 °F 6.5 °F 1022.6 in NE 6.4 mph 16.1 mph 96 % 0.5 in
11:02 7.2 °F 6.6 °F 1022.2 in NE 8.0 mph 14.5 mph 96 % 0.8 in
11:07 7.3 °F 6.7 °F 1022.2 in NNE 14.5 mph 17.7 mph 96 % 0.8 in
11:17 7.5 °F 6.9 °F 1022.6 in NNE 9.7 mph 16.1 mph 96 % 0.5 in
11:22 7.6 °F 7.0 °F 1022.6 in NE 4.8 mph 16.1 mph 96 % 0.5 in
11:27 7.7 °F 7.1 °F 1022.6 in NNE 25.7 mph 25.7 mph 96 % 0.5 in
11:37 7.9 °F 7.3 °F 1022.2 in NNE 6.4 mph 25.7 mph 96 % 0.3 in
11:42 8.0 °F 7.2 °F 1022.2 in NE 11.3 mph 25.7 mph 95 % 0.3 in
11:47 8.1 °F 7.3 °F 1022.2 in NE 11.3 mph 19.3 mph 95 % 0.3 in
11:52 8.2 °F 7.4 °F 1022.2 in NNE 12.9 mph 19.3 mph 95 % 0.3 in
12:02 8.4 °F 7.5 °F 1021.9 in NE 9.7 mph 22.5 mph 94 % 0.0 in
12:12 8.9 °F 8.0 °F 1021.9 in NNE 17.7 mph 24.1 mph 94 % 0.0 in
12:17 9.1 °F 8.0 °F 1022.2 in ENE 12.9 mph 25.7 mph 93 % 0.0 in
12:22 9.4 °F 8.3 °F 1022.2 in NE 14.5 mph 25.7 mph 93 % 0.0 in
12:32 9.8 °F 8.4 °F 1022.2 in NE 8.0 mph 22.5 mph 91 % 0.0 in
12:37 9.9 °F 8.3 °F 1022.2 in NNE 6.4 mph 25.7 mph 90 % 0.0 in
12:42 10.1 °F 8.4 °F 1022.6 in ENE 12.9 mph 25.7 mph 89 % 0.0 in
12:47 10.1 °F 8.2 °F 1022.6 in NE 9.7 mph 25.7 mph 88 % 0.0 in
12:52 10.3 °F 8.6 °F 1022.6 in NNE 4.8 mph 25.7 mph 89 % 0.0 in
13:02 10.7 °F 8.6 °F 1022.6 in NNE 14.5 mph 24.1 mph 87 % 0.0 in
13:12 10.6 °F 8.4 °F 1022.6 in NE 19.3 mph 19.3 mph 86 % 0.0 in
13:17 10.6 °F 8.2 °F 1022.9 in NNE 11.3 mph 24.1 mph 85 % 0.0 in
13:22 10.7 °F 8.3 °F 1022.6 in NE 20.9 mph 24.1 mph 85 % 0.0 in
13:32 10.9 °F 8.3 °F 1022.6 in NE 4.8 mph 29.0 mph 84 % 0.0 in
13:37 11.0 °F 8.0 °F 1022.2 in NE 12.9 mph 29.0 mph 82 % 0.0 in
13:42 11.2 °F 8.4 °F 1022.2 in NNE 12.9 mph 29.0 mph 83 % 0.0 in
13:47 11.3 °F 8.5 °F 1022.2 in NE 12.9 mph 29.0 mph 83 % 0.0 in
13:52 11.4 °F 8.4 °F 1022.2 in NE 9.7 mph 29.0 mph 82 % 0.0 in
13:57 11.5 °F 8.4 °F 1022.2 in NE 19.3 mph 24.1 mph 81 % 0.0 in
14:02 11.6 °F 8.3 °F 1022.2 in NE 9.7 mph 24.1 mph 80 % 0.0 in
14:12 11.7 °F 8.2 °F 1022.2 in NNE 25.7 mph 25.7 mph 79 % 0.0 in
14:17 11.6 °F 8.1 °F 1022.2 in North 8.0 mph 30.6 mph 79 % 0.0 in
14:22 11.6 °F 8.1 °F 1022.2 in NNE 8.0 mph 30.6 mph 79 % 0.0 in
14:32 11.7 °F 8.5 °F 1021.9 in NE 4.8 mph 30.6 mph 81 % 0.0 in
14:37 11.8 °F 8.5 °F 1021.9 in NNE 11.3 mph 22.5 mph 80 % 0.0 in
14:42 11.9 °F 8.4 °F 1021.9 in NE 12.9 mph 22.5 mph 79 % 0.0 in
14:47 11.9 °F 8.2 °F 1021.9 in ENE 20.9 mph 22.5 mph 78 % 0.0 in
14:52 11.9 °F 8.2 °F 1021.9 in North 11.3 mph 22.5 mph 78 % 0.0 in
14:57 12.0 °F 8.5 °F 1021.9 in ESE 8.0 mph 24.1 mph 79 % 0.0 in
15:02 11.9 °F 8.2 °F 1021.9 in NE 8.0 mph 24.1 mph 78 % 0.0 in
15:12 11.9 °F 8.6 °F 1021.6 in NE 12.9 mph 25.7 mph 80 % 0.0 in
15:17 12.0 °F 8.5 °F 1021.6 in NE 16.1 mph 25.7 mph 79 % 0.0 in
15:27 12.1 °F 8.4 °F 1021.9 in NE 16.1 mph 24.1 mph 78 % 0.0 in
15:32 12.1 °F 8.6 °F 1021.9 in NNE 20.9 mph 24.1 mph 79 % 0.0 in
15:37 12.1 °F 8.6 °F 1021.9 in NNE 12.9 mph 27.4 mph 79 % 0.0 in
15:42 12.1 °F 8.8 °F 1021.9 in NE 17.7 mph 27.4 mph 80 % 0.0 in
15:47 12.1 °F 8.8 °F 1021.9 in NNE 16.1 mph 29.0 mph 80 % 0.0 in
15:52 12.2 °F 8.7 °F 1021.9 in North 22.5 mph 29.0 mph 79 % 0.0 in
15:57 12.1 °F 8.8 °F 1021.9 in East 16.1 mph 25.7 mph 80 % 0.0 in
16:02 12.0 °F 8.5 °F 1021.9 in ENE 14.5 mph 25.7 mph 79 % 0.0 in
16:12 11.9 °F 8.6 °F 1021.9 in NE 24.1 mph 25.7 mph 80 % 0.0 in
16:17 11.8 °F 8.5 °F 1021.6 in NNE 16.1 mph 30.6 mph 80 % 0.0 in
16:22 11.8 °F 8.5 °F 1021.6 in NNW 9.7 mph 30.6 mph 80 % 0.0 in
16:32 11.7 °F 8.5 °F 1021.6 in NE 9.7 mph 30.6 mph 81 % 0.0 in
16:37 11.7 °F 8.5 °F 1021.9 in NE 11.3 mph 30.6 mph 81 % 0.0 in
16:42 11.7 °F 8.5 °F 1021.6 in NNE 19.3 mph 30.6 mph 81 % 0.0 in
16:52 11.6 °F 8.6 °F 1021.9 in NNE 12.9 mph 29.0 mph 82 % 0.0 in
16:57 11.5 °F 8.5 °F 1021.9 in ENE 19.3 mph 24.1 mph 82 % 0.0 in
17:02 11.5 °F 8.5 °F 1021.9 in NNE 12.9 mph 24.1 mph 82 % 0.0 in
17:12 11.4 °F 8.6 °F 1022.2 in ENE 12.9 mph 27.4 mph 83 % 0.0 in
17:17 11.4 °F 8.6 °F 1022.2 in NNE 9.7 mph 24.1 mph 83 % 0.0 in
17:22 11.4 °F 8.6 °F 1022.2 in ENE 3.2 mph 24.1 mph 83 % 0.0 in
17:27 11.4 °F 8.8 °F 1022.2 in North 14.5 mph 24.1 mph 84 % 0.0 in
17:32 11.4 °F 8.8 °F 1022.2 in NE 6.4 mph 24.1 mph 84 % 0.0 in
17:42 11.4 °F 8.8 °F 1022.2 in North 12.9 mph 20.9 mph 84 % 0.0 in
17:52 11.5 °F 8.9 °F 1022.2 in NNE 9.7 mph 17.7 mph 84 % 0.0 in
17:57 11.4 °F 8.8 °F 1022.2 in NNE 9.7 mph 22.5 mph 84 % 0.0 in
18:02 11.4 °F 8.8 °F 1022.2 in NNE 4.8 mph 22.5 mph 84 % 0.0 in
18:07 11.4 °F 8.8 °F 1022.6 in NE 9.7 mph 19.3 mph 84 % 0.0 in
18:12 11.4 °F 9.0 °F 1022.6 in North 4.8 mph 19.3 mph 85 % 0.0 in
18:17 11.3 °F 8.9 °F 1022.6 in NE 9.7 mph 19.3 mph 85 % 0.0 in
18:22 11.3 °F 8.9 °F 1022.6 in NNE 12.9 mph 17.7 mph 85 % 0.0 in
18:32 11.2 °F 8.9 °F 1022.6 in NE 4.8 mph 14.5 mph 86 % 0.0 in
18:42 11.2 °F 8.9 °F 1022.6 in NNE 8.0 mph 14.5 mph 86 % 0.0 in
18:47 11.2 °F 8.9 °F 1022.9 in NE 3.2 mph 14.5 mph 86 % 0.0 in
18:52 11.1 °F 8.8 °F 1022.9 in NE 8.0 mph 14.5 mph 86 % 0.0 in
18:57 11.1 °F 8.8 °F 1022.6 in NE 8.0 mph 14.5 mph 86 % 0.0 in
19:02 11.1 °F 8.8 °F 1022.2 in NNW 9.7 mph 14.5 mph 86 % 0.0 in
19:12 10.9 °F 8.6 °F 1021.9 in NE 19.3 mph 19.3 mph 86 % 0.0 in
19:17 10.9 °F 8.6 °F 1021.9 in NNW 6.4 mph 17.7 mph 86 % 0.0 in
19:22 10.9 °F 8.6 °F 1021.9 in NE 16.1 mph 19.3 mph 86 % 0.0 in
19:32 10.8 °F 8.7 °F 1021.9 in NE 12.9 mph 24.1 mph 87 % 0.0 in
19:37 10.7 °F 8.6 °F 1021.9 in NNE 9.7 mph 27.4 mph 87 % 0.0 in
19:42 10.7 °F 8.6 °F 1021.9 in ENE 9.7 mph 27.4 mph 87 % 0.0 in
19:47 10.6 °F 8.5 °F 1021.6 in NNE 16.1 mph 25.7 mph 87 % 0.0 in
19:52 10.7 °F 8.6 °F 1021.9 in NNE 9.7 mph 27.4 mph 87 % 0.0 in
19:57 10.7 °F 8.6 °F 1021.9 in NE 12.9 mph 27.4 mph 87 % 0.0 in
20:07 10.8 °F 8.7 °F 1022.6 in NNE 4.8 mph 29.0 mph 87 % 0.0 in
20:12 10.7 °F 8.6 °F 1022.6 in NNE 8.0 mph 29.0 mph 87 % 0.0 in
20:17 10.7 °F 8.8 °F 1022.6 in NNE 8.0 mph 24.1 mph 88 % 0.0 in
20:22 10.7 °F 8.8 °F 1022.6 in NNE 11.3 mph 24.1 mph 88 % 0.0 in
20:27 10.6 °F 8.7 °F 1022.9 in NNW 9.7 mph 17.7 mph 88 % 0.0 in
20:37 10.6 °F 8.7 °F 1022.9 in NE 8.0 mph 17.7 mph 88 % 0.0 in
20:42 10.6 °F 8.7 °F 1022.6 in NE 16.1 mph 17.7 mph 88 % 0.0 in
20:47 10.4 °F 8.5 °F 1022.6 in NE 16.1 mph 24.1 mph 88 % 0.0 in
20:52 10.4 °F 8.5 °F 1022.9 in NNE 4.8 mph 24.1 mph 88 % 0.0 in
20:57 10.4 °F 8.5 °F 1022.6 in NE 16.1 mph 22.5 mph 88 % 0.0 in
21:02 10.3 °F 8.4 °F 1022.6 in NE 14.5 mph 22.5 mph 88 % 0.0 in
21:12 10.4 °F 8.3 °F 1022.6 in NNE 16.1 mph 22.5 mph 87 % 0.0 in
21:17 10.4 °F 8.3 °F 1022.9 in NNE 19.3 mph 30.6 mph 87 % 0.0 in
21:22 10.3 °F 8.2 °F 1022.9 in NNE 16.1 mph 30.6 mph 87 % 0.0 in
21:32 10.2 °F 8.3 °F 1023.2 in NE 9.7 mph 24.1 mph 88 % 0.0 in
21:37 10.2 °F 8.3 °F 1023.2 in NE 12.9 mph 20.9 mph 88 % 0.0 in
21:42 10.1 °F 8.2 °F 1023.2 in NNE 8.0 mph 20.9 mph 88 % 0.0 in
21:47 10.0 °F 8.1 °F 1023.2 in NNE 19.3 mph 20.9 mph 88 % 0.0 in
21:52 10.0 °F 8.1 °F 1023.2 in NE 11.3 mph 20.9 mph 88 % 0.0 in
21:57 9.9 °F 8.0 °F 1023.2 in NNE 16.1 mph 24.1 mph 88 % 0.0 in
22:02 9.9 °F 8.0 °F 1023.2 in NNE 8.0 mph 24.1 mph 88 % 0.0 in
22:12 9.8 °F 7.9 °F 1022.9 in North 11.3 mph 24.1 mph 88 % 0.0 in
22:17 9.7 °F 7.8 °F 1023.2 in NNE 9.7 mph 20.9 mph 88 % 0.0 in
22:22 9.7 °F 7.8 °F 1023.2 in NNE 14.5 mph 20.9 mph 88 % 0.0 in
22:32 9.6 °F 7.5 °F 1023.2 in NNE 11.3 mph 22.5 mph 87 % 0.0 in
22:37 9.6 °F 7.7 °F 1023.2 in NNE 16.1 mph 20.9 mph 88 % 0.0 in
22:42 9.6 °F 7.5 °F 1023.2 in NE 11.3 mph 20.9 mph 87 % 0.0 in
22:47 9.6 °F 7.5 °F 1023.2 in NE 12.9 mph 24.1 mph 87 % 0.0 in
22:52 9.5 °F 7.6 °F 1022.9 in NNE 6.4 mph 24.1 mph 88 % 0.0 in
23:02 9.6 °F 7.7 °F 1022.9 in NNE 16.1 mph 19.3 mph 88 % 0.0 in
23:12 9.6 °F 7.7 °F 1022.9 in NE 12.9 mph 17.7 mph 88 % 0.0 in
23:17 9.6 °F 7.7 °F 1022.9 in NE 14.5 mph 19.3 mph 88 % 0.0 in
23:22 9.6 °F 7.7 °F 1022.6 in ENE 9.7 mph 19.3 mph 88 % 0.0 in
23:27 9.6 °F 7.7 °F 1022.6 in North 3.2 mph 20.9 mph 88 % 0.0 in
23:32 9.7 °F 7.8 °F 1022.6 in North 6.4 mph 20.9 mph 88 % 0.0 in
23:37 9.5 °F 7.6 °F 1022.6 in North 9.7 mph 20.9 mph 88 % 0.0 in
23:42 9.5 °F 7.6 °F 1022.6 in NNE 11.3 mph 20.9 mph 88 % 0.0 in
23:52 9.4 °F 7.5 °F 1022.6 in NNW 6.4 mph 19.3 mph 88 % 0.0 in
23:57 9.3 °F 7.4 °F 1022.6 in NNE 14.5 mph 19.3 mph 88 % 0.0 in
Meteo18
Compliments of Weather Underground - 4 mb

Script developed by  Jim McMurry - jmcmurry@mwt.net Adapted for the template by  Wim van der Kuil - Leuven-Template.eu

You find our weather info also at:

European Weather Network

Weather Underground

Equipment we use:

Weather-station
Davis Vue

Weather-program
Meteobridge

Weather-server
Raspberry PI 2 B+

Provider
1 and 1

Davis Vue

Meteobridge

Raspberry PI 2 B+

1 and 1